createdAt,value
2023-10-04T00:02:11.161Z,1.20
2023-10-04T00:04:38.002Z,1.17
2023-10-04T00:07:04.772Z,0.90
2023-10-04T00:09:31.564Z,1.20
2023-10-04T00:11:58.523Z,0.93
2023-10-04T00:14:25.258Z,0.98
2023-10-04T00:16:52.156Z,1.10
2023-10-04T00:19:19.073Z,0.90
2023-10-04T00:21:45.776Z,1.00
2023-10-04T00:24:12.836Z,0.90
2023-10-04T00:26:39.828Z,0.93
2023-10-04T00:29:06.521Z,1.15
2023-10-04T00:31:33.296Z,0.90
2023-10-04T00:34:00.047Z,1.00
2023-10-04T00:36:26.832Z,0.90
2023-10-04T00:38:53.584Z,1.00
2023-10-04T00:41:20.274Z,1.00
2023-10-04T00:43:46.974Z,0.80
2023-10-04T00:46:13.730Z,1.10
2023-10-04T00:48:40.473Z,1.10
2023-10-04T00:51:07.437Z,1.00
2023-10-04T00:53:34.131Z,1.02
2023-10-04T00:56:00.816Z,0.90
2023-10-04T00:58:27.528Z,1.00
2023-10-04T01:00:54.480Z,1.15
2023-10-04T01:03:21.388Z,0.80
2023-10-04T01:06:06.969Z,0.70
2023-10-04T01:08:52.082Z,0.90
2023-10-04T01:11:37.564Z,0.90
2023-10-04T01:14:22.776Z,0.88
2023-10-04T01:17:07.994Z,0.95
2023-10-04T01:19:53.379Z,0.80
2023-10-04T01:22:38.537Z,0.80
2023-10-04T01:25:24.106Z,0.82
2023-10-04T01:28:09.475Z,0.95
2023-10-04T01:30:54.764Z,0.90
2023-10-04T01:33:39.792Z,0.88
2023-10-04T01:36:25.359Z,0.80
2023-10-04T01:39:10.925Z,0.90
2023-10-04T01:41:56.333Z,0.70
2023-10-04T01:44:41.422Z,0.98
2023-10-04T01:47:26.742Z,0.75
2023-10-04T01:50:11.890Z,0.80
2023-10-04T01:52:56.877Z,0.90
2023-10-04T01:55:42.032Z,0.70
2023-10-04T01:58:27.373Z,0.93
2023-10-04T02:01:12.511Z,0.90
2023-10-04T02:03:58.465Z,0.83
2023-10-04T02:06:43.915Z,0.85
2023-10-04T02:09:29.222Z,0.80
2023-10-04T02:12:14.519Z,0.60
2023-10-04T02:15:00.273Z,0.90
2023-10-04T02:17:45.801Z,0.80
2023-10-04T02:20:30.933Z,0.90
2023-10-04T02:23:16.141Z,0.77
2023-10-04T02:26:01.347Z,0.80
2023-10-04T02:28:46.431Z,0.90
2023-10-04T02:31:32.045Z,0.70
2023-10-04T02:34:17.201Z,0.70
2023-10-04T02:37:02.318Z,0.80
2023-10-04T02:39:47.376Z,0.73
2023-10-04T02:42:32.730Z,0.70
2023-10-04T02:45:17.913Z,0.80
2023-10-04T02:48:03.567Z,0.70
2023-10-04T02:50:49.045Z,0.80
2023-10-04T02:53:34.136Z,0.70
2023-10-04T02:56:20.124Z,0.80
2023-10-04T02:59:06.485Z,0.90
2023-10-04T03:01:51.563Z,0.75
2023-10-04T03:04:36.668Z,0.80
2023-10-04T03:07:21.799Z,0.60
2023-10-04T03:10:07.195Z,0.70
2023-10-04T03:12:52.342Z,0.80
2023-10-04T03:15:37.978Z,0.68
2023-10-04T03:18:23.431Z,0.60
2023-10-04T03:21:08.720Z,0.60
2023-10-04T03:23:53.690Z,0.70
2023-10-04T03:26:39.416Z,0.80
2023-10-04T03:29:06.346Z,0.80
2023-10-04T03:31:33.181Z,0.77
2023-10-04T03:34:00.175Z,0.80
2023-10-04T03:36:27.157Z,0.65
2023-10-04T03:38:53.891Z,0.70
2023-10-04T03:41:20.944Z,0.68
2023-10-04T03:43:47.988Z,0.80
2023-10-04T03:46:14.739Z,0.60
2023-10-04T03:48:42.505Z,0.75
2023-10-04T03:51:10.642Z,0.70
2023-10-04T03:53:39.345Z,0.70
2023-10-04T03:56:06.086Z,0.70
2023-10-04T03:58:33.023Z,0.70
2023-10-04T04:00:59.735Z,0.60
2023-10-04T04:03:26.577Z,0.50
2023-10-04T04:05:53.660Z,0.70
2023-10-04T04:08:20.371Z,0.50
2023-10-04T04:10:47.058Z,0.70
2023-10-04T04:13:13.786Z,0.70
2023-10-04T04:15:40.602Z,0.60
2023-10-04T04:18:07.617Z,0.60
2023-10-04T04:20:34.881Z,0.70
2023-10-04T04:23:01.616Z,0.68
2023-10-04T04:25:28.400Z,0.60
2023-10-04T04:27:55.114Z,0.50
2023-10-04T04:30:21.977Z,0.77
2023-10-04T04:32:48.862Z,0.70
2023-10-04T04:35:15.694Z,0.70
2023-10-04T04:37:42.620Z,0.80
2023-10-04T04:40:09.314Z,0.60
2023-10-04T04:42:36.079Z,0.70
2023-10-04T04:45:02.992Z,0.70
2023-10-04T04:47:29.692Z,0.70
2023-10-04T04:49:56.396Z,0.90
2023-10-04T04:52:23.178Z,0.70
2023-10-04T04:54:49.885Z,0.80
2023-10-04T04:57:16.633Z,1.00
2023-10-04T04:59:43.366Z,1.00
2023-10-04T05:02:10.077Z,0.90
2023-10-04T05:04:36.821Z,0.80
2023-10-04T05:07:03.494Z,0.65
2023-10-04T05:09:30.289Z,0.75
2023-10-04T05:11:57.037Z,0.70
2023-10-04T05:14:23.955Z,0.80
2023-10-04T05:16:50.897Z,0.70
2023-10-04T05:19:17.890Z,0.70
2023-10-04T05:21:44.675Z,0.80
2023-10-04T05:24:11.595Z,0.82
2023-10-04T05:26:38.672Z,0.90
2023-10-04T05:29:05.755Z,0.70
2023-10-04T05:31:32.703Z,0.60
2023-10-04T05:33:59.487Z,0.70
2023-10-04T05:36:26.207Z,0.70
2023-10-04T05:38:55.521Z,0.90
2023-10-04T05:41:22.243Z,0.70
2023-10-04T05:43:49.178Z,0.70
2023-10-04T05:46:15.920Z,0.70
2023-10-04T05:48:42.698Z,0.68
2023-10-04T05:51:09.752Z,0.75
2023-10-04T05:53:36.743Z,0.90
2023-10-04T05:56:03.721Z,0.60
2023-10-04T05:58:30.660Z,0.60
2023-10-04T06:00:58.056Z,0.70
2023-10-04T06:03:24.980Z,0.60
2023-10-04T06:05:52.056Z,0.80
2023-10-04T06:08:18.944Z,0.63
2023-10-04T06:10:45.643Z,0.60
2023-10-04T06:13:12.568Z,0.60
2023-10-04T06:15:39.336Z,0.60
2023-10-04T06:18:06.211Z,0.67
2023-10-04T06:20:33.000Z,0.70
2023-10-04T06:22:59.728Z,0.60
2023-10-04T06:25:26.434Z,0.70
2023-10-04T06:27:53.182Z,0.65
2023-10-04T06:30:19.933Z,0.60
2023-10-04T06:32:46.733Z,0.63
2023-10-04T06:35:13.479Z,0.60
2023-10-04T06:37:40.208Z,0.60
2023-10-04T06:40:06.922Z,0.57
2023-10-04T06:42:33.615Z,0.60
2023-10-04T06:45:00.434Z,0.60
2023-10-04T06:47:27.207Z,0.60
2023-10-04T06:49:53.951Z,0.50
2023-10-04T06:52:20.899Z,0.60
2023-10-04T06:54:47.735Z,0.60
2023-10-04T06:57:14.536Z,0.60
2023-10-04T06:59:41.280Z,0.60
2023-10-04T07:02:08.007Z,0.70
2023-10-04T07:04:34.769Z,0.52
2023-10-04T07:07:01.573Z,0.70
2023-10-04T07:09:28.339Z,0.70
2023-10-04T07:11:55.073Z,0.70
2023-10-04T07:14:21.761Z,0.70
2023-10-04T07:16:48.472Z,0.60
2023-10-04T07:19:15.274Z,0.60
2023-10-04T07:21:42.057Z,0.65
2023-10-04T07:24:09.162Z,0.60
2023-10-04T07:26:35.875Z,0.60
2023-10-04T07:29:02.810Z,0.60
2023-10-04T07:31:29.745Z,0.60
2023-10-04T07:33:56.547Z,0.80
2023-10-04T07:36:23.318Z,0.55
2023-10-04T07:38:50.071Z,0.60
2023-10-04T07:41:16.980Z,0.50
2023-10-04T07:43:43.958Z,0.60
2023-10-04T07:46:10.978Z,0.70
2023-10-04T07:48:38.038Z,0.60
2023-10-04T07:51:05.087Z,0.60
2023-10-04T07:53:31.809Z,0.50
2023-10-04T07:55:58.528Z,0.67
2023-10-04T07:58:25.464Z,0.50
2023-10-04T08:00:52.226Z,0.50
2023-10-04T08:03:19.290Z,0.50
2023-10-04T08:05:46.124Z,0.60
2023-10-04T08:08:13.089Z,0.50
2023-10-04T08:10:39.857Z,0.50
2023-10-04T08:13:07.255Z,0.60
2023-10-04T08:15:34.516Z,0.50
2023-10-04T08:18:01.589Z,0.50
2023-10-04T08:20:28.400Z,0.50
2023-10-04T08:22:55.128Z,0.60
2023-10-04T08:25:21.894Z,0.50
2023-10-04T08:27:48.813Z,0.50
2023-10-04T08:30:15.829Z,0.50
2023-10-04T08:32:42.678Z,0.60
2023-10-04T08:35:09.530Z,0.68
2023-10-04T08:37:36.271Z,0.40
2023-10-04T08:40:03.018Z,0.50
2023-10-04T08:42:29.746Z,0.60
2023-10-04T08:44:56.505Z,0.50
2023-10-04T08:47:23.246Z,0.50
2023-10-04T08:49:50.206Z,0.50
2023-10-04T08:52:16.941Z,0.50
2023-10-04T08:54:43.680Z,0.60
2023-10-04T08:57:10.426Z,0.60
2023-10-04T08:59:37.161Z,0.63
2023-10-04T09:02:03.921Z,0.40
2023-10-04T09:04:33.238Z,0.60
2023-10-04T09:07:01.797Z,0.40
2023-10-04T09:09:28.607Z,0.50
2023-10-04T09:11:55.396Z,0.60
2023-10-04T09:14:22.140Z,0.60
2023-10-04T09:16:49.147Z,0.50
2023-10-04T09:19:15.900Z,0.60
2023-10-04T09:21:42.747Z,0.50
2023-10-04T09:24:09.713Z,0.60
2023-10-04T09:26:36.643Z,0.60
2023-10-04T09:29:03.386Z,0.68
2023-10-04T09:31:30.124Z,0.60
2023-10-04T09:33:56.932Z,0.50
2023-10-04T09:36:23.761Z,0.50
2023-10-04T09:38:51.699Z,0.60
2023-10-04T09:41:19.582Z,0.60
2023-10-04T09:43:46.290Z,0.57
2023-10-04T09:46:13.395Z,0.60
2023-10-04T09:48:40.346Z,0.63
2023-10-04T09:51:07.096Z,0.70
2023-10-04T09:53:34.122Z,0.50
2023-10-04T09:56:00.883Z,0.60
2023-10-04T09:58:27.610Z,0.60
2023-10-04T10:00:54.389Z,0.63
2023-10-04T10:03:21.168Z,0.60
2023-10-04T10:05:47.961Z,0.60
2023-10-04T10:08:14.718Z,0.52
2023-10-04T10:10:41.693Z,0.70
2023-10-04T10:13:08.512Z,0.52
2023-10-04T10:15:35.513Z,0.50
2023-10-04T10:18:02.365Z,0.52
2023-10-04T10:20:29.138Z,0.60
2023-10-04T10:22:55.837Z,0.60
2023-10-04T10:25:23.031Z,0.75
2023-10-04T10:27:50.036Z,0.70
2023-10-04T10:30:16.996Z,0.55
2023-10-04T10:32:44.778Z,0.70
2023-10-04T10:35:11.569Z,0.70
2023-10-04T10:37:38.310Z,0.70
2023-10-04T10:40:05.012Z,0.60
2023-10-04T10:42:31.756Z,0.50
2023-10-04T10:44:58.468Z,0.60
2023-10-04T10:47:25.172Z,0.70
2023-10-04T10:49:52.101Z,0.70
2023-10-04T10:52:18.825Z,0.70
2023-10-04T10:54:45.661Z,0.70
2023-10-04T10:57:12.492Z,0.60
2023-10-04T10:59:39.188Z,0.67
2023-10-04T11:02:06.030Z,0.60
2023-10-04T11:04:33.062Z,0.70
2023-10-04T11:06:59.771Z,0.70
2023-10-04T11:09:40.588Z,0.65
2023-10-04T11:12:11.258Z,0.60
2023-10-04T11:14:37.973Z,0.88
2023-10-04T11:17:04.813Z,0.70
2023-10-04T11:19:31.554Z,0.60
2023-10-04T11:21:58.306Z,0.57
2023-10-04T11:24:25.056Z,0.70
2023-10-04T11:26:51.810Z,0.80
2023-10-04T11:29:18.545Z,0.50
2023-10-04T11:31:46.352Z,0.90
2023-10-04T11:34:13.651Z,0.70
2023-10-04T11:36:40.390Z,0.70
2023-10-04T11:39:07.371Z,0.63
2023-10-04T11:41:34.155Z,0.68
2023-10-04T11:44:00.856Z,0.85
2023-10-04T11:46:27.608Z,0.80
2023-10-04T11:48:54.371Z,0.77
2023-10-04T11:51:21.170Z,0.70
2023-10-04T11:53:48.005Z,0.73
2023-10-04T11:56:14.699Z,0.75
2023-10-04T11:58:41.634Z,0.93
2023-10-04T12:01:08.381Z,0.83
2023-10-04T12:03:35.218Z,0.80
2023-10-04T12:06:02.445Z,0.70
2023-10-04T12:08:29.367Z,0.80
2023-10-04T12:10:56.084Z,0.70
2023-10-04T12:13:22.791Z,0.80
2023-10-04T12:15:49.744Z,0.77
2023-10-04T12:18:16.810Z,0.80
2023-10-04T12:20:43.536Z,0.60
2023-10-04T12:23:10.476Z,0.75
2023-10-04T12:25:37.247Z,0.60
2023-10-04T12:28:04.249Z,0.90
2023-10-04T12:30:33.643Z,0.80
2023-10-04T12:33:00.662Z,0.90
2023-10-04T12:35:27.491Z,0.80
2023-10-04T12:37:54.237Z,0.70
2023-10-04T12:40:20.966Z,0.73
2023-10-04T12:42:47.981Z,0.80
2023-10-04T12:45:14.796Z,0.77
2023-10-04T12:47:41.603Z,0.80
2023-10-04T12:50:08.574Z,0.80
2023-10-04T12:52:35.353Z,0.80
2023-10-04T12:55:02.152Z,0.80
2023-10-04T12:57:28.915Z,0.90
2023-10-04T12:59:55.628Z,0.90
2023-10-04T13:02:22.409Z,0.80
2023-10-04T13:04:50.418Z,0.75
2023-10-04T13:07:17.227Z,0.88
2023-10-04T13:09:56.058Z,0.90
2023-10-04T13:12:24.907Z,0.70
2023-10-04T13:14:53.842Z,0.80
2023-10-04T13:17:23.097Z,0.82
2023-10-04T13:19:49.838Z,0.80
2023-10-04T13:22:16.568Z,0.90
2023-10-04T13:24:43.354Z,0.90
2023-10-04T13:27:12.132Z,1.00
2023-10-04T13:29:38.866Z,0.80
2023-10-04T13:32:05.617Z,0.85
2023-10-04T13:34:32.354Z,1.00
2023-10-04T13:36:59.098Z,0.90
2023-10-04T13:39:25.851Z,1.00
2023-10-04T13:41:52.627Z,0.90
2023-10-04T13:44:19.354Z,0.80
2023-10-04T13:46:46.103Z,0.90
2023-10-04T13:49:12.879Z,1.00
2023-10-04T13:51:39.660Z,1.00
2023-10-04T13:54:06.415Z,1.10
2023-10-04T13:56:33.172Z,1.08
2023-10-04T13:58:59.931Z,1.00
2023-10-04T14:01:26.801Z,1.05
2023-10-04T14:03:53.660Z,1.10
2023-10-04T14:06:20.506Z,0.80
2023-10-04T14:08:47.205Z,1.00
2023-10-04T14:11:13.924Z,0.95
2023-10-04T14:13:40.864Z,1.40
2023-10-04T14:16:07.761Z,1.30
2023-10-04T14:18:34.809Z,1.35
2023-10-04T14:21:01.822Z,1.20
2023-10-04T14:23:28.572Z,1.10
2023-10-04T14:25:55.534Z,1.10
2023-10-04T14:28:22.243Z,1.00
2023-10-04T14:30:49.004Z,1.20
2023-10-04T14:33:15.832Z,1.20
2023-10-04T14:35:42.554Z,1.20
2023-10-04T14:38:09.452Z,1.40
2023-10-04T14:40:46.872Z,1.07
2023-10-04T14:43:18.297Z,1.20
2023-10-04T14:45:45.112Z,1.58
2023-10-04T14:48:12.215Z,1.35
2023-10-04T14:50:40.461Z,1.10
2023-10-04T14:53:07.404Z,1.13
2023-10-04T14:55:34.176Z,1.10
2023-10-04T14:58:01.145Z,1.17
2023-10-04T15:00:27.964Z,1.08
2023-10-04T15:02:55.931Z,1.23
2023-10-04T15:05:25.928Z,1.00
2023-10-04T15:07:52.747Z,1.10
2023-10-04T15:10:19.449Z,1.23
2023-10-04T15:12:46.485Z,1.50
2023-10-04T15:15:13.231Z,1.20
2023-10-04T15:17:40.284Z,1.17
2023-10-04T15:20:07.064Z,1.20
2023-10-04T15:22:33.772Z,1.40
2023-10-04T15:25:00.581Z,1.50
2023-10-04T15:27:27.662Z,1.20
2023-10-04T15:29:54.494Z,1.27
2023-10-04T15:32:21.232Z,1.35
2023-10-04T15:34:47.965Z,1.20
2023-10-04T15:37:14.688Z,1.20
2023-10-04T15:39:41.426Z,1.13
2023-10-04T15:42:08.172Z,1.03
2023-10-04T15:44:34.888Z,1.10
2023-10-04T15:47:01.656Z,1.10
2023-10-04T15:49:28.429Z,1.10
2023-10-04T15:51:55.223Z,1.40
2023-10-04T15:54:22.020Z,1.67
2023-10-04T15:56:48.718Z,1.27
2023-10-04T15:59:15.395Z,1.10
2023-10-04T16:01:42.128Z,1.20
2023-10-04T16:04:09.110Z,1.55
2023-10-04T16:06:36.843Z,1.10
2023-10-04T16:09:03.557Z,1.40
2023-10-04T16:11:30.280Z,1.20
2023-10-04T16:13:56.996Z,1.15
2023-10-04T16:16:23.754Z,1.50
2023-10-04T16:18:50.560Z,1.20
2023-10-04T16:21:17.321Z,1.10
2023-10-04T16:23:44.029Z,1.10
2023-10-04T16:26:10.756Z,1.20
2023-10-04T16:28:37.500Z,1.50
2023-10-04T16:31:04.284Z,1.23
2023-10-04T16:33:31.073Z,1.20
2023-10-04T16:35:57.799Z,1.20
2023-10-04T16:38:24.524Z,1.13
2023-10-04T16:40:51.281Z,1.00
2023-10-04T16:43:18.091Z,1.37
2023-10-04T16:45:45.135Z,1.25
2023-10-04T16:48:11.962Z,1.20
2023-10-04T16:50:38.705Z,1.38
2023-10-04T16:53:05.433Z,1.13
2023-10-04T16:55:32.138Z,1.40
2023-10-04T16:57:58.925Z,1.00
2023-10-04T17:00:25.809Z,1.40
2023-10-04T17:02:52.552Z,1.50
2023-10-04T17:05:19.754Z,1.30
2023-10-04T17:07:46.845Z,1.57
2023-10-04T17:10:14.187Z,1.00
2023-10-04T17:12:41.175Z,0.95
2023-10-04T17:15:08.037Z,1.10
2023-10-04T17:17:35.133Z,1.15
2023-10-04T17:20:02.127Z,1.23
2023-10-04T17:22:29.019Z,1.20
2023-10-04T17:24:56.222Z,1.20
2023-10-04T17:27:23.126Z,1.20
2023-10-04T17:29:49.953Z,1.27
2023-10-04T17:32:16.751Z,1.00
2023-10-04T17:34:43.637Z,1.10
2023-10-04T17:37:10.751Z,0.95
2023-10-04T17:39:37.667Z,1.02
2023-10-04T17:42:04.391Z,1.15
2023-10-04T17:44:31.107Z,1.10
2023-10-04T17:46:58.091Z,1.35
2023-10-04T17:49:25.196Z,1.15
2023-10-04T17:51:52.179Z,1.08
2023-10-04T17:54:19.057Z,1.20
2023-10-04T17:56:45.834Z,1.17
2023-10-04T17:59:12.566Z,1.10
2023-10-04T18:01:39.720Z,1.00
2023-10-04T18:04:06.879Z,1.20
2023-10-04T18:06:33.740Z,1.05
2023-10-04T18:09:00.692Z,1.10
2023-10-04T18:11:27.524Z,1.05
2023-10-04T18:13:54.391Z,1.27
2023-10-04T18:16:21.252Z,1.05
2023-10-04T18:18:48.066Z,1.00
2023-10-04T18:21:14.898Z,1.20
2023-10-04T18:23:41.659Z,1.05
2023-10-04T18:26:08.387Z,1.02
2023-10-04T18:28:35.137Z,1.10
2023-10-04T18:31:02.010Z,1.00
2023-10-04T18:33:28.959Z,1.20
2023-10-04T18:35:55.905Z,1.20
2023-10-04T18:38:22.609Z,1.38
2023-10-04T18:40:49.535Z,1.42
2023-10-04T18:43:16.377Z,1.20
2023-10-04T18:45:43.149Z,1.17
2023-10-04T18:48:09.901Z,1.10
2023-10-04T18:50:36.615Z,1.30
2023-10-04T18:53:05.065Z,1.20
2023-10-04T18:55:32.121Z,1.30
2023-10-04T18:57:58.910Z,1.10
2023-10-04T19:00:25.744Z,1.08
2023-10-04T19:02:52.527Z,1.25
2023-10-04T19:05:19.316Z,1.20
2023-10-04T19:07:46.239Z,1.10
2023-10-04T19:10:13.195Z,1.30
2023-10-04T19:12:40.040Z,1.30
2023-10-04T19:15:06.783Z,1.50
2023-10-04T19:17:33.553Z,1.00
2023-10-04T19:20:00.311Z,1.20
2023-10-04T19:22:27.044Z,1.13
2023-10-04T19:24:53.755Z,1.20
2023-10-04T19:27:20.429Z,1.20
2023-10-04T19:29:47.119Z,1.20
2023-10-04T19:32:13.849Z,1.10
2023-10-04T19:34:40.574Z,1.07
2023-10-04T19:37:07.352Z,0.90
2023-10-04T19:39:34.224Z,1.25
2023-10-04T19:42:00.930Z,1.20
2023-10-04T19:44:27.663Z,1.30
2023-10-04T19:46:54.406Z,1.20
2023-10-04T19:49:21.154Z,1.17
2023-10-04T19:51:47.925Z,0.98
2023-10-04T19:54:14.688Z,1.33
2023-10-04T19:56:41.625Z,1.00
2023-10-04T19:59:08.349Z,1.47
2023-10-04T20:01:35.152Z,0.95
2023-10-04T20:04:02.077Z,1.10
2023-10-04T20:06:28.837Z,1.13
2023-10-04T20:08:55.671Z,1.73
2023-10-04T20:11:22.641Z,1.20
2023-10-04T20:13:49.418Z,1.10
2023-10-04T20:16:16.213Z,1.10
2023-10-04T20:18:43.149Z,1.13
2023-10-04T20:21:10.083Z,1.30
2023-10-04T20:23:36.790Z,1.37
2023-10-04T20:26:03.468Z,1.17
2023-10-04T20:28:30.375Z,1.38
2023-10-04T20:30:57.159Z,1.15
2023-10-04T20:33:26.682Z,1.13
2023-10-04T20:35:53.395Z,1.53
2023-10-04T20:38:20.134Z,1.00
2023-10-04T20:40:46.843Z,1.02
2023-10-04T20:43:13.609Z,1.13
2023-10-04T20:45:40.468Z,1.20
2023-10-04T20:48:07.392Z,1.30
2023-10-04T20:50:34.211Z,1.38
2023-10-04T20:53:00.947Z,1.10
2023-10-04T20:55:27.864Z,0.93
2023-10-04T20:57:54.596Z,1.10
2023-10-04T21:00:21.344Z,1.00
2023-10-04T21:02:48.236Z,1.20
2023-10-04T21:05:15.218Z,1.20
2023-10-04T21:07:41.976Z,1.15
2023-10-04T21:10:08.845Z,1.42
2023-10-04T21:12:35.667Z,1.07
2023-10-04T21:15:02.405Z,1.27
2023-10-04T21:17:29.132Z,1.25
2023-10-04T21:19:55.851Z,1.38
2023-10-04T21:22:22.571Z,1.15
2023-10-04T21:24:49.386Z,1.20
2023-10-04T21:27:16.152Z,1.17
2023-10-04T21:29:42.870Z,1.30
2023-10-04T21:32:09.613Z,1.10
2023-10-04T21:34:36.318Z,1.00
2023-10-04T21:37:03.101Z,1.27
2023-10-04T21:39:29.943Z,1.20
2023-10-04T21:41:56.896Z,1.15
2023-10-04T21:44:23.684Z,1.02
2023-10-04T21:46:50.419Z,1.25
2023-10-04T21:49:17.268Z,1.10
2023-10-04T21:51:44.060Z,1.00
2023-10-04T21:54:10.790Z,1.10
2023-10-04T21:56:37.501Z,0.95
2023-10-04T21:59:04.234Z,1.02
2023-10-04T22:01:31.006Z,0.93
2023-10-04T22:03:57.971Z,1.20
2023-10-04T22:06:24.986Z,1.20
2023-10-04T22:08:51.669Z,1.30
2023-10-04T22:11:18.393Z,1.10
2023-10-04T22:13:45.103Z,0.97
2023-10-04T22:16:11.955Z,1.00
2023-10-04T22:18:38.876Z,1.05
2023-10-04T22:21:05.627Z,1.17
2023-10-04T22:23:32.348Z,1.25
2023-10-04T22:25:59.074Z,1.20
2023-10-04T22:30:57.386Z,0.90
2023-10-04T22:33:24.124Z,1.30
2023-10-04T22:35:50.829Z,1.13
2023-10-04T22:38:17.722Z,1.10
2023-10-04T22:40:44.439Z,1.05
2023-10-04T22:43:11.190Z,1.20
2023-10-04T22:45:37.968Z,1.10
2023-10-04T22:48:04.775Z,1.20
2023-10-04T22:50:31.559Z,1.13
2023-10-04T22:52:58.262Z,1.10
2023-10-04T22:55:25.033Z,1.10
2023-10-04T22:57:51.863Z,1.20
2023-10-04T23:00:18.632Z,1.17
2023-10-04T23:02:45.659Z,1.40
2023-10-04T23:05:12.455Z,1.10
2023-10-04T23:07:39.172Z,1.25
2023-10-04T23:10:05.906Z,1.20
2023-10-04T23:12:32.716Z,1.27
2023-10-04T23:14:59.524Z,1.20
2023-10-04T23:17:26.416Z,1.50
2023-10-04T23:19:53.157Z,1.20
2023-10-04T23:22:19.921Z,1.27
2023-10-04T23:24:46.717Z,1.27
2023-10-04T23:27:13.471Z,0.90
2023-10-04T23:29:40.175Z,1.10
2023-10-04T23:32:06.880Z,1.20
2023-10-04T23:34:33.594Z,1.42
2023-10-04T23:37:00.320Z,1.50
2023-10-04T23:39:27.086Z,1.47
2023-10-04T23:41:53.793Z,1.50
2023-10-04T23:44:20.508Z,1.27
2023-10-04T23:46:47.366Z,1.48
2023-10-04T23:49:14.128Z,1.13
2023-10-04T23:51:41.075Z,1.30
2023-10-04T23:54:07.800Z,1.50
2023-10-04T23:56:34.774Z,1.10
2023-10-04T23:59:01.486Z,1.20
